地図

経路データ

SID SEASON NUMBER BASIN SUBBASIN NAME ISO_TIME NATURE LAT LON WMO_WIND WMO_PRES WMO_AGENCY TRACK_TYPE DIST2LAND LANDFALL IFLAG USA_AGENCY USA_ATCF_ID USA_LAT USA_LON USA_RECORD USA_STATUS USA_WIND USA_PRES USA_SSHS USA_R34_NE USA_R34_SE USA_R34_SW USA_R34_NW USA_R50_NE USA_R50_SE USA_R50_SW USA_R50_NW USA_R64_NE USA_R64_SE USA_R64_SW USA_R64_NW USA_POCI USA_ROCI USA_RMW USA_EYE TOKYO_LAT TOKYO_LON TOKYO_GRADE TOKYO_WIND TOKYO_PRES TOKYO_R50_DIR TOKYO_R50_LONG TOKYO_R50_SHORT TOKYO_R30_DIR TOKYO_R30_LONG TOKYO_R30_SHORT TOKYO_LAND CMA_LAT CMA_LON CMA_CAT CMA_WIND CMA_PRES HKO_LAT HKO_LON HKO_CAT HKO_WIND HKO_PRES NEWDELHI_LAT NEWDELHI_LON NEWDELHI_GRADE NEWDELHI_WIND NEWDELHI_PRES NEWDELHI_CI NEWDELHI_DP NEWDELHI_POCI REUNION_LAT REUNION_LON REUNION_TYPE REUNION_WIND REUNION_PRES REUNION_TNUM REUNION_CI REUNION_RMW REUNION_R34_NE REUNION_R34_SE REUNION_R34_SW REUNION_R34_NW REUNION_R50_NE REUNION_R50_SE REUNION_R50_SW REUNION_R50_NW REUNION_R64_NE REUNION_R64_SE REUNION_R64_SW REUNION_R64_NW BOM_LAT BOM_LON BOM_TYPE BOM_WIND BOM_PRES BOM_TNUM BOM_CI BOM_RMW BOM_R34_NE BOM_R34_SE BOM_R34_SW BOM_R34_NW BOM_R50_NE BOM_R50_SE BOM_R50_SW BOM_R50_NW BOM_R64_NE BOM_R64_SE BOM_R64_SW BOM_R64_NW BOM_ROCI BOM_POCI BOM_EYE BOM_POS_METHOD BOM_PRES_METHOD NADI_LAT NADI_LON NADI_CAT NADI_WIND NADI_PRES WELLINGTON_LAT WELLINGTON_LON WELLINGTON_WIND WELLINGTON_PRES DS824_LAT DS824_LON DS824_STAGE DS824_WIND DS824_PRES TD9636_LAT TD9636_LON TD9636_STAGE TD9636_WIND TD9636_PRES TD9635_LAT TD9635_LON TD9635_WIND TD9635_PRES TD9635_ROCI NEUMANN_LAT NEUMANN_LON NEUMANN_CLASS NEUMANN_WIND NEUMANN_PRES MLC_LAT MLC_LON MLC_CLASS MLC_WIND MLC_PRES USA_GUST BOM_GUST BOM_GUST_PER REUNION_GUST REUNION_GUST_PER USA_SEAHGT USA_SEARAD_NE USA_SEARAD_SE USA_SEARAD_SW USA_SEARAD_NW STORM_SPEED STORM_DIR
2001047N09134 2001 8 WP MM NOT_NAMED 2001-02-16 06:00:00 TS 8.80000 133.900 main 813 782 O_____________ jtwc_wp WP012001 8.80000 133.900 TD 15 -1 7 285
2001047N09134 2001 8 WP MM NOT_NAMED 2001-02-16 09:00:00 TS 8.88996 133.550 main 782 730 P_____________ WP012001 8.88996 133.550 TD 17 -1 8 284
2001047N09134 2001 8 WP MM NOT_NAMED 2001-02-16 12:00:00 TS 9.00000 133.100 main 730 668 O_____________ jtwc_wp WP012001 9.00000 133.100 TD 20 -1 11 284
2001047N09134 2001 8 WP MM NOT_NAMED 2001-02-16 15:00:00 TS 9.14256 132.488 main 668 599 P_____________ WP012001 9.14256 132.488 TD 20 -1 13 283
2001047N09134 2001 8 WP MM NOT_NAMED 2001-02-16 18:00:00 TS 9.30000 131.800 main 599 540 O_____________ jtwc_wp WP012001 9.30000 131.800 TD 20 -1 14 283
2001047N09134 2001 8 WP MM NOT_NAMED 2001-02-16 21:00:00 TS 9.45742 131.143 main 533 470 P_____________ WP012001 9.45742 131.143 TD 20 -1 13 283
2001047N09134 2001 8 WP MM NOT_NAMED 2001-02-17 00:00:00 TS 9.60000 130.500 main 470 408 O_____________ jtwc_wp WP012001 9.60000 130.500 TD 20 -1 13 281
2001047N09134 2001 8 WP MM NOT_NAMED 2001-02-17 03:00:00 TS 9.70736 129.892 main 408 346 P_____________ WP012001 9.70736 129.892 TD 20 -1 12 280
2001047N09134 2001 8 WP MM NOT_NAMED 2001-02-17 06:00:00 TS 9.80000 129.300 main 346 285 O_____________ jtwc_wp WP012001 9.80000 129.300 TD 20 -1 12 279
2001047N09134 2001 8 WP MM NOT_NAMED 2001-02-17 09:00:00 TS 9.89993 128.692 main 285 226 P_____________ WP012001 9.89993 128.692 TD 20 -1 12 280
2001047N09134 2001 8 WP MM NOT_NAMED 2001-02-17 12:00:00 TS 10.0000 128.100 main 226 183 O_____________ jtwc_wp WP012001 10.0000 128.100 TD 20 -1 12 280
2001047N09134 2001 8 WP MM NOT_NAMED 2001-02-17 15:00:00 TS 10.0924 127.542 main 174 134 P_____________ WP012001 10.0924 127.542 TD 20 -1 11 280
2001047N09134 2001 8 WP MM NOT_NAMED 2001-02-17 18:00:00 TS 10.2000 127.000 main 134 105 O_____________ jtwc_wp WP012001 10.2000 127.000 TD 20 -1 11 283
2001047N09134 2001 8 WP MM NOT_NAMED 2001-02-17 21:00:00 TS 10.3349 126.450 main 99 57 P_____________ WP012001 10.3349 126.450 TD 22 -1 11 286
2001047N09134 2001 8 WP MM NOT_NAMED 2001-02-18 00:00:00 TS 10.5000 125.900 main 57 24 O_____________ jtwc_wp WP012001 10.5000 125.900 TD 25 -1 12 288
2001047N09134 2001 8 WP MM NOT_NAMED 2001-02-18 03:00:00 TS 10.7000 125.335 main 15 0 P_____________ WP012001 10.7000 125.335 TD 25 -1 12 290
2001047N09134 2001 8 WP MM NOT_NAMED 2001-02-18 06:00:00 TS 10.9000 124.800 main 0 0 O_____________ jtwc_wp WP012001 10.9000 124.800 TD 25 -1 11 290
2001047N09134 2001 8 WP MM NOT_NAMED 2001-02-18 09:00:00 TS 11.0724 124.312 main 10 0 P_____________ WP012001 11.0724 124.312 TD 25 -1 9 289
2001047N09134 2001 8 WP MM NOT_NAMED 2001-02-18 12:00:00 TS 11.2000 123.900 main 0 0 O_____________ jtwc_wp WP012001 11.2000 123.900 TD 25 -1 7 285
2001047N09134 2001 8 WP MM NOT_NAMED 2001-02-18 15:00:00 TS 11.2649 123.585 main 34 21 P_____________ WP012001 11.2649 123.585 TD 25 -1 6 280
2001047N09134 2001 8 WP MM NOT_NAMED 2001-02-18 18:00:00 TS 11.3000 123.300 main 21 0 O_____________ jtwc_wp WP012001 11.3000 123.300 TD 25 -1 6 278
2001047N09134 2001 8 WP MM NOT_NAMED 2001-02-18 21:00:00 TS 11.3575 122.950 main 0 0 P_____________ WP012001 11.3575 122.950 TD 25 -1 7 278
2001047N09134 2001 8 WP MM NOT_NAMED 2001-02-19 00:00:00 TS 11.4000 122.600 main 0 0 O_____________ jtwc_wp WP012001 11.4000 122.600 TD 25 -1 7 274
2001047N09134 2001 8 WP MM NOT_NAMED 2001-02-19 03:00:00 TS 11.4075 122.285 main 0 0 P_____________ WP012001 11.4075 122.285 TD 25 -1 6 270
2001047N09134 2001 8 WP MM NOT_NAMED 2001-02-19 06:00:00 TS 11.4000 122.000 main 10 10 O_____________ jtwc_wp WP012001 11.4000 122.000 TD 25 -1 5 268
2001047N09134 2001 8 WP MM NOT_NAMED 2001-02-19 09:00:00 TS 11.3850 121.742 main 43 43 P_____________ WP012001 11.3850 121.742 TD 25 -1 5 270
2001047N09134 2001 8 WP MM NOT_NAMED 2001-02-19 12:00:00 TS 11.4000 121.500 main 55 55 O_____________ jtwc_wp WP012001 11.4000 121.500 TD 25 -1 5 281
2001047N09134 2001 8 WP MM NOT_NAMED 2001-02-19 15:00:00 TS 11.4850 121.235 main 73 67 P_____________ WP012001 11.4850 121.235 TD 25 -1 5 292
2001047N09134 2001 8 WP MM NOT_NAMED 2001-02-19 18:00:00 TS 11.6000 121.000 main 68 60 O_____________ jtwc_wp WP012001 11.6000 121.000 TD 25 -1 5 298
2001047N09134 2001 8 WP MM NOT_NAMED 2001-02-19 21:00:00 TS 11.7000 120.827 main 64 55 P_____________ WP012001 11.7000 120.827 TD 22 -1 4 304
2001047N09134 2001 8 WP MM NOT_NAMED 2001-02-20 00:00:00 TS 11.8000 120.700 main 62 62 O_____________ jtwc_wp WP012001 11.8000 120.700 TD 20 -1 3 311
2001047N09134 2001 8 WP MM NOT_NAMED 2001-02-20 03:00:00 TS 11.9000 120.592 main 63 63 P_____________ WP012001 11.9000 120.592 TD 20 -1 3 316
2001047N09134 2001 8 WP MM NOT_NAMED 2001-02-20 06:00:00 TS 12.0000 120.500 main 69 69 O_____________ jtwc_wp WP012001 12.0000 120.500 TD 20 -1 3 315
2001047N09134 2001 8 WP MM NOT_NAMED 2001-02-20 09:00:00 TS 12.0925 120.400 main 73 73 P_____________ WP012001 12.0925 120.400 TD 20 -1 3 316
2001047N09134 2001 8 WP MM NOT_NAMED 2001-02-20 12:00:00 TS 12.2000 120.300 main 78 70 O_____________ jtwc_wp WP012001 12.2000 120.300 TD 20 -1 3 321
2001047N09134 2001 8 WP MM NOT_NAMED 2001-02-20 15:00:00 TS 12.3350 120.200 main 79 73 P_____________ WP012001 12.3350 120.200 TD 22 -1 4 327
2001047N09134 2001 8 WP MM NOT_NAMED 2001-02-20 18:00:00 TS 12.5000 120.100 main 79 76 O_____________ jtwc_wp WP012001 12.5000 120.100 TD 25 -1 4 331
2001047N09134 2001 8 WP MM NOT_NAMED 2001-02-20 21:00:00 TS 12.6850 120.000 main 77 70 P_____________ WP012001 12.6850 120.000 TD 22 -1 4 334
2001047N09134 2001 8 WP MM NOT_NAMED 2001-02-21 00:00:00 TS 12.9000 119.900 main 70 62 O_____________ jtwc_wp WP012001 12.9000 119.900 TD 20 1004 -1 5 337
2001047N09134 2001 8 WP MM NOT_NAMED 2001-02-21 03:00:00 TS 13.1425 119.800 main 63 55 P_____________ WP012001 13.1425 119.800 TD 20 1004 -1 5 339
2001047N09134 2001 8 WP MM NOT_NAMED 2001-02-21 06:00:00 TS 13.4000 119.700 main 64 64 O_____________ jtwc_wp WP012001 13.4000 119.700 TD 20 1004 -1 5 339
2001047N09134 2001 8 WP MM NOT_NAMED 2001-02-21 09:00:00 TS 13.6425 119.600 main 78 78 P_____________ WP012001 13.6425 119.600 TD 20 -1 5 339
2001047N09134 2001 8 WP MM NOT_NAMED 2001-02-21 12:00:00 TS 13.9000 119.500 main 103 100 O_____________ jtwc_wp WP012001 13.9000 119.500 TD 20 -1 6 341
2001047N09134 2001 8 WP MM NOT_NAMED 2001-02-21 15:00:00 TS 14.1925 119.400 main 100 92 P_____________ WP012001 14.1925 119.400 TD 20 -1 6 342
2001047N09134 2001 8 WP MM NOT_NAMED 2001-02-21 18:00:00 TS 14.5000 119.300 main 92 86 O_____________ jtwc_wp WP012001 14.5000 119.300 TD 20 -1 6 342
2001047N09134 2001 8 WP MM NOT_NAMED 2001-02-21 21:00:00 TS 14.8025 119.200 main 96 87 P_____________ WP012001 14.8025 119.200 TD 20 -1 6 342
2001047N09134 2001 8 WP MM NOT_NAMED 2001-02-22 00:00:00 TS 15.1000 119.100 main 92 O_____________ jtwc_wp WP012001 15.1000 119.100 TD 20 1004 -1 6 341

デジタル台風データ・検索

IBTrACS Databaseについて

本データベースは、米国NOAAが公開する1842年以降の世界の熱帯低気圧のベストトラックデータアーカイブInternational Best Track Archive for Climate Stewardship (IBTrACS)を、ウェブで閲覧しやすい形式に変換したものです。

最終更新日:2021-10-21